sensor_id;sensor_type;location;lat;lon;timestamp;pressure;altitude;pressure_sealevel;temperature;humidity
43814;BME280;29669;55.706;37.656;2022-08-30T00:00:22;99197.63;;;21.79;nan
43814;BME280;29669;55.706;37.656;2022-08-30T00:04:01;99197.59;;;21.74;nan
43814;BME280;29669;55.706;37.656;2022-08-30T00:07:22;99194.84;;;21.64;nan
43814;BME280;29669;55.706;37.656;2022-08-30T00:10:43;99192.16;;;21.59;nan
43814;BME280;29669;55.706;37.656;2022-08-30T00:14:04;99208.72;;;21.54;nan
43814;BME280;29669;55.706;37.656;2022-08-30T00:17:25;99207.63;;;21.50;nan
43814;BME280;29669;55.706;37.656;2022-08-30T00:20:47;99209.16;;;21.46;nan
43814;BME280;29669;55.706;37.656;2022-08-30T00:24:08;99205.19;;;21.44;nan
43814;BME280;29669;55.706;37.656;2022-08-30T00:27:22;99199.91;;;21.44;nan
43814;BME280;29669;55.706;37.656;2022-08-30T00:30:44;99200.38;;;21.41;nan
43814;BME280;29669;55.706;37.656;2022-08-30T00:34:05;99195.91;;;21.41;nan
43814;BME280;29669;55.706;37.656;2022-08-30T00:37:26;99198.28;;;21.43;nan
43814;BME280;29669;55.706;37.656;2022-08-30T00:40:47;99204.06;;;21.40;nan
43814;BME280;29669;55.706;37.656;2022-08-30T00:44:08;99204.75;;;21.30;nan
43814;BME280;29669;55.706;37.656;2022-08-30T00:47:29;99206.53;;;21.25;nan
43814;BME280;29669;55.706;37.656;2022-08-30T00:50:54;99201.72;;;21.22;nan
43814;BME280;29669;55.706;37.656;2022-08-30T00:54:17;99199.03;;;21.17;nan
43814;BME280;29669;55.706;37.656;2022-08-30T00:57:39;99181.28;;;21.12;nan
43814;BME280;29669;55.706;37.656;2022-08-30T01:01:02;99189.13;;;21.07;nan
43814;BME280;29669;55.706;37.656;2022-08-30T01:04:24;99196.50;;;21.05;nan
43814;BME280;29669;55.706;37.656;2022-08-30T01:07:46;99191.22;;;21.05;nan
43814;BME280;29669;55.706;37.656;2022-08-30T01:11:07;99186.75;;;21.06;nan
43814;BME280;29669;55.706;37.656;2022-08-30T01:14:30;99185.13;;;21.05;nan
43814;BME280;29669;55.706;37.656;2022-08-30T01:17:52;99183.06;;;21.07;nan
43814;BME280;29669;55.706;37.656;2022-08-30T01:21:15;99181.22;;;21.07;nan
43814;BME280;29669;55.706;37.656;2022-08-30T01:24:37;99179.09;;;21.04;nan
43814;BME280;29669;55.706;37.656;2022-08-30T01:28:04;99181.47;;;21.06;nan
43814;BME280;29669;55.706;37.656;2022-08-30T01:31:26;99174.13;;;21.08;nan
43814;BME280;29669;55.706;37.656;2022-08-30T01:34:49;99174.13;;;21.08;nan
43814;BME280;29669;55.706;37.656;2022-08-30T01:38:12;99164.59;;;21.07;nan
43814;BME280;29669;55.706;37.656;2022-08-30T01:41:35;99170.09;;;21.05;nan
43814;BME280;29669;55.706;37.656;2022-08-30T01:44:56;99167.16;;;21.02;nan
43814;BME280;29669;55.706;37.656;2022-08-30T01:48:17;99172.91;;;20.99;nan
43814;BME280;29669;55.706;37.656;2022-08-30T01:51:39;99188.97;;;20.97;nan
43814;BME280;29669;55.706;37.656;2022-08-30T01:55:07;99183.38;;;20.94;nan
43814;BME280;29669;55.706;37.656;2022-08-30T01:58:28;99180.44;;;20.90;nan
43814;BME280;29669;55.706;37.656;2022-08-30T02:01:49;99182.75;;;20.87;nan
43814;BME280;29669;55.706;37.656;2022-08-30T02:05:10;99177.66;;;20.80;nan
43814;BME280;29669;55.706;37.656;2022-08-30T02:08:31;99178.31;;;20.71;nan
43814;BME280;29669;55.706;37.656;2022-08-30T02:11:53;99173.88;;;20.54;nan
43814;BME280;29669;55.706;37.656;2022-08-30T02:15:14;99170.50;;;20.42;nan
43814;BME280;29669;55.706;37.656;2022-08-30T02:18:36;99171.13;;;20.33;nan
43814;BME280;29669;55.706;37.656;2022-08-30T02:21:57;99174.75;;;20.27;nan
43814;BME280;29669;55.706;37.656;2022-08-30T02:25:18;99178.09;;;20.22;nan
43814;BME280;29669;55.706;37.656;2022-08-30T02:28:39;99176.38;;;20.16;nan
43814;BME280;29669;55.706;37.656;2022-08-30T02:32:00;99177.91;;;20.12;nan
43814;BME280;29669;55.706;37.656;2022-08-30T02:35:21;99189.16;;;20.08;nan
43814;BME280;29669;55.706;37.656;2022-08-30T02:38:42;99192.81;;;20.07;nan
43814;BME280;29669;55.706;37.656;2022-08-30T02:42:03;99191.81;;;20.08;nan
43814;BME280;29669;55.706;37.656;2022-08-30T02:45:24;99194.44;;;20.08;nan
43814;BME280;29669;55.706;37.656;2022-08-30T02:48:45;99195.00;;;20.10;nan
43814;BME280;29669;55.706;37.656;2022-08-30T02:52:11;99199.22;;;20.11;nan
43814;BME280;29669;55.706;37.656;2022-08-30T02:55:33;99193.94;;;20.11;nan
43814;BME280;29669;55.706;37.656;2022-08-30T02:58:54;99194.50;;;20.13;nan
43814;BME280;29669;55.706;37.656;2022-08-30T03:02:15;99198.50;;;20.15;nan
43814;BME280;29669;55.706;37.656;2022-08-30T03:05:36;99199.09;;;20.17;nan
43814;BME280;29669;55.706;37.656;2022-08-30T03:08:57;99201.25;;;20.20;nan
43814;BME280;29669;55.706;37.656;2022-08-30T03:12:18;99200.78;;;20.23;nan
43814;BME280;29669;55.706;37.656;2022-08-30T03:15:40;99194.56;;;20.29;nan
43814;BME280;29669;55.706;37.656;2022-08-30T03:19:03;99198.31;;;20.33;nan
43814;BME280;29669;55.706;37.656;2022-08-30T03:22:24;99202.63;;;20.39;nan
43814;BME280;29669;55.706;37.656;2022-08-30T03:25:45;99199.50;;;20.42;nan
43814;BME280;29669;55.706;37.656;2022-08-30T03:29:06;99197.44;;;20.44;nan
43814;BME280;29669;55.706;37.656;2022-08-30T03:32:27;99198.88;;;20.52;nan
43814;BME280;29669;55.706;37.656;2022-08-30T03:35:49;99194.78;;;20.61;nan
43814;BME280;29669;55.706;37.656;2022-08-30T03:39:10;99187.34;;;20.75;nan
43814;BME280;29669;55.706;37.656;2022-08-30T03:42:31;99196.41;;;20.84;nan
43814;BME280;29669;55.706;37.656;2022-08-30T03:45:52;99203.38;;;20.90;nan
43814;BME280;29669;55.706;37.656;2022-08-30T03:49:13;99207.69;;;20.96;nan
43814;BME280;29669;55.706;37.656;2022-08-30T03:52:34;99210.88;;;20.98;nan
43814;BME280;29669;55.706;37.656;2022-08-30T03:55:55;99212.03;;;21.02;nan
43814;BME280;29669;55.706;37.656;2022-08-30T03:59:16;99205.78;;;21.08;nan
43814;BME280;29669;55.706;37.656;2022-08-30T04:02:37;99207.38;;;21.09;nan
43814;BME280;29669;55.706;37.656;2022-08-30T04:05:58;99213.69;;;21.08;nan
43814;BME280;29669;55.706;37.656;2022-08-30T04:09:19;99213.13;;;21.06;nan
43814;BME280;29669;55.706;37.656;2022-08-30T04:12:40;99204.47;;;21.10;nan
43814;BME280;29669;55.706;37.656;2022-08-30T04:16:01;99213.25;;;21.16;nan
43814;BME280;29669;55.706;37.656;2022-08-30T04:19:22;99209.59;;;21.17;nan
43814;BME280;29669;55.706;37.656;2022-08-30T04:22:44;99216.44;;;21.18;nan
43814;BME280;29669;55.706;37.656;2022-08-30T04:26:05;99219.97;;;21.23;nan
43814;BME280;29669;55.706;37.656;2022-08-30T04:29:26;99220.50;;;21.25;nan
43814;BME280;29669;55.706;37.656;2022-08-30T04:32:47;99218.81;;;21.36;nan
43814;BME280;29669;55.706;37.656;2022-08-30T04:36:09;99224.53;;;21.49;nan
43814;BME280;29669;55.706;37.656;2022-08-30T04:39:30;99225.13;;;21.57;nan
43814;BME280;29669;55.706;37.656;2022-08-30T04:42:51;99209.09;;;21.63;nan
43814;BME280;29669;55.706;37.656;2022-08-30T04:46:13;99206.00;;;21.71;nan
43814;BME280;29669;55.706;37.656;2022-08-30T04:49:35;99205.16;;;21.87;nan
43814;BME280;29669;55.706;37.656;2022-08-30T04:52:56;99208.69;;;21.98;nan
43814;BME280;29669;55.706;37.656;2022-08-30T04:56:20;99213.41;;;21.96;nan
43814;BME280;29669;55.706;37.656;2022-08-30T04:59:41;99207.34;;;21.95;nan
43814;BME280;29669;55.706;37.656;2022-08-30T05:03:03;99209.75;;;21.97;nan
43814;BME280;29669;55.706;37.656;2022-08-30T05:06:27;99205.31;;;22.02;nan
43814;BME280;29669;55.706;37.656;2022-08-30T05:09:48;99207.13;;;22.02;nan
43814;BME280;29669;55.706;37.656;2022-08-30T05:13:11;99210.03;;;22.00;nan
43814;BME280;29669;55.706;37.656;2022-08-30T05:16:41;99211.91;;;22.05;nan
43814;BME280;29669;55.706;37.656;2022-08-30T05:20:03;99218.38;;;22.14;nan
43814;BME280;29669;55.706;37.656;2022-08-30T05:23:25;99217.59;;;22.18;nan
43814;BME280;29669;55.706;37.656;2022-08-30T05:26:46;99224.28;;;22.26;nan
43814;BME280;29669;55.706;37.656;2022-08-30T05:30:08;99225.09;;;22.31;nan
43814;BME280;29669;55.706;37.656;2022-08-30T05:33:29;99222.28;;;22.38;nan
43814;BME280;29669;55.706;37.656;2022-08-30T05:36:51;99218.88;;;22.42;nan
43814;BME280;29669;55.706;37.656;2022-08-30T05:40:13;99226.31;;;22.51;nan
43814;BME280;29669;55.706;37.656;2022-08-30T05:43:36;99219.47;;;22.55;nan
43814;BME280;29669;55.706;37.656;2022-08-30T05:46:56;99232.03;;;22.64;nan
43814;BME280;29669;55.706;37.656;2022-08-30T05:50:17;99223.91;;;22.76;nan
43814;BME280;29669;55.706;37.656;2022-08-30T05:53:40;99225.00;;;22.80;nan
43814;BME280;29669;55.706;37.656;2022-08-30T05:57:01;99217.88;;;22.85;nan
43814;BME280;29669;55.706;37.656;2022-08-30T06:00:22;99227.75;;;22.95;nan
43814;BME280;29669;55.706;37.656;2022-08-30T06:03:43;99234.41;;;23.07;nan
43814;BME280;29669;55.706;37.656;2022-08-30T06:07:08;99239.50;;;23.14;nan
43814;BME280;29669;55.706;37.656;2022-08-30T06:10:29;99231.63;;;23.24;nan
43814;BME280;29669;55.706;37.656;2022-08-30T06:13:51;99228.47;;;23.32;nan
43814;BME280;29669;55.706;37.656;2022-08-30T06:17:12;99228.00;;;23.40;nan
43814;BME280;29669;55.706;37.656;2022-08-30T06:20:38;99235.19;;;23.55;nan
43814;BME280;29669;55.706;37.656;2022-08-30T06:24:01;99236.81;;;23.66;nan
43814;BME280;29669;55.706;37.656;2022-08-30T06:27:23;99235.81;;;23.77;nan
43814;BME280;29669;55.706;37.656;2022-08-30T06:30:44;99238.75;;;23.90;nan
43814;BME280;29669;55.706;37.656;2022-08-30T06:34:05;99232.66;;;24.00;nan
43814;BME280;29669;55.706;37.656;2022-08-30T06:37:26;99231.38;;;24.07;nan
43814;BME280;29669;55.706;37.656;2022-08-30T06:40:47;99239.88;;;24.09;nan
43814;BME280;29669;55.706;37.656;2022-08-30T06:44:08;99227.97;;;24.17;nan
43814;BME280;29669;55.706;37.656;2022-08-30T06:47:31;99224.78;;;24.25;nan
43814;BME280;29669;55.706;37.656;2022-08-30T06:50:53;99225.06;;;24.34;nan
43814;BME280;29669;55.706;37.656;2022-08-30T06:54:14;99234.59;;;24.50;nan
43814;BME280;29669;55.706;37.656;2022-08-30T06:57:35;99229.56;;;24.63;nan
43814;BME280;29669;55.706;37.656;2022-08-30T07:00:57;99236.47;;;24.69;nan
43814;BME280;29669;55.706;37.656;2022-08-30T07:04:18;99227.72;;;24.79;nan
43814;BME280;29669;55.706;37.656;2022-08-30T07:07:39;99231.94;;;24.95;nan
43814;BME280;29669;55.706;37.656;2022-08-30T07:11:00;99237.47;;;25.13;nan
43814;BME280;29669;55.706;37.656;2022-08-30T07:14:21;99232.13;;;25.24;nan
43814;BME280;29669;55.706;37.656;2022-08-30T07:17:42;99233.41;;;25.46;nan
43814;BME280;29669;55.706;37.656;2022-08-30T07:21:24;99229.69;;;25.47;nan
43814;BME280;29669;55.706;37.656;2022-08-30T07:24:45;99241.91;;;25.48;nan
43814;BME280;29669;55.706;37.656;2022-08-30T07:28:08;99228.63;;;25.48;nan
43814;BME280;29669;55.706;37.656;2022-08-30T07:31:29;99237.66;;;25.42;nan
43814;BME280;29669;55.706;37.656;2022-08-30T07:34:50;99235.81;;;25.43;nan
43814;BME280;29669;55.706;37.656;2022-08-30T07:38:12;99241.91;;;25.48;nan
43814;BME280;29669;55.706;37.656;2022-08-30T07:41:35;99243.19;;;25.56;nan
43814;BME280;29669;55.706;37.656;2022-08-30T07:44:56;99237.31;;;25.64;nan
43814;BME280;29669;55.706;37.656;2022-08-30T07:48:17;99243.69;;;25.63;nan
43814;BME280;29669;55.706;37.656;2022-08-30T07:51:39;99235.72;;;25.63;nan
43814;BME280;29669;55.706;37.656;2022-08-30T07:54:54;99242.91;;;25.62;nan
43814;BME280;29669;55.706;37.656;2022-08-30T07:58:15;99247.41;;;25.67;nan
43814;BME280;29669;55.706;37.656;2022-08-30T08:01:36;99243.97;;;25.61;nan
43814;BME280;29669;55.706;37.656;2022-08-30T08:04:57;99243.41;;;25.69;nan
43814;BME280;29669;55.706;37.656;2022-08-30T08:08:22;99235.38;;;25.79;nan
43814;BME280;29669;55.706;37.656;2022-08-30T08:11:43;99249.69;;;25.88;nan
43814;BME280;29669;55.706;37.656;2022-08-30T08:15:04;99242.19;;;25.95;nan
43814;BME280;29669;55.706;37.656;2022-08-30T08:18:25;99238.13;;;26.13;nan
43814;BME280;29669;55.706;37.656;2022-08-30T08:21:46;99243.28;;;26.33;nan
43814;BME280;29669;55.706;37.656;2022-08-30T08:25:26;99239.47;;;26.44;nan
43814;BME280;29669;55.706;37.656;2022-08-30T08:28:48;99245.53;;;26.55;nan
43814;BME280;29669;55.706;37.656;2022-08-30T08:32:09;99238.75;;;26.67;nan
43814;BME280;29669;55.706;37.656;2022-08-30T08:35:30;99239.31;;;26.69;nan
43814;BME280;29669;55.706;37.656;2022-08-30T08:38:51;99231.56;;;26.68;nan
43814;BME280;29669;55.706;37.656;2022-08-30T08:42:28;99238.75;;;26.67;nan
43814;BME280;29669;55.706;37.656;2022-08-30T08:49:45;99236.78;;;26.83;nan
43814;BME280;29669;55.706;37.656;2022-08-30T08:53:06;99239.91;;;26.90;nan
43814;BME280;29669;55.706;37.656;2022-08-30T08:56:54;99237.00;;;26.86;nan
43814;BME280;29669;55.706;37.656;2022-08-30T09:00:18;99244.25;;;26.81;nan
43814;BME280;29669;55.706;37.656;2022-08-30T09:03:40;99240.78;;;26.80;nan
43814;BME280;29669;55.706;37.656;2022-08-30T09:07:09;99248.19;;;26.88;nan
43814;BME280;29669;55.706;37.656;2022-08-30T09:10:34;99240.88;;;26.99;nan
43814;BME280;29669;55.706;37.656;2022-08-30T09:13:56;99246.09;;;27.09;nan
43814;BME280;29669;55.706;37.656;2022-08-30T09:17:19;99250.53;;;27.19;nan
43814;BME280;29669;55.706;37.656;2022-08-30T09:20:45;99242.97;;;27.26;nan
43814;BME280;29669;55.706;37.656;2022-08-30T09:24:06;99253.28;;;27.37;nan
43814;BME280;29669;55.706;37.656;2022-08-30T09:27:37;99256.81;;;27.33;nan
43814;BME280;29669;55.706;37.656;2022-08-30T09:31:23;99256.59;;;27.24;nan
43814;BME280;29669;55.706;37.656;2022-08-30T09:34:45;99252.28;;;27.28;nan
43814;BME280;29669;55.706;37.656;2022-08-30T09:38:09;99257.56;;;27.33;nan
43814;BME280;29669;55.706;37.656;2022-08-30T09:41:39;99252.13;;;27.43;nan
43814;BME280;29669;55.706;37.656;2022-08-30T09:45:01;99248.38;;;27.44;nan
43814;BME280;29669;55.706;37.656;2022-08-30T09:51:52;99249.22;;;27.63;nan
43814;BME280;29669;55.706;37.656;2022-08-30T09:55:41;99244.69;;;27.82;nan
43814;BME280;29669;55.706;37.656;2022-08-30T10:03:13;99252.56;;;27.92;nan
43814;BME280;29669;55.706;37.656;2022-08-30T10:07:07;99255.84;;;28.08;nan
43814;BME280;29669;55.706;37.656;2022-08-30T10:10:57;99245.72;;;28.24;nan
43814;BME280;29669;55.706;37.656;2022-08-30T10:21:29;99251.56;;;28.90;nan
43814;BME280;29669;55.706;37.656;2022-08-30T10:25:47;99251.75;;;29.12;nan
43814;BME280;29669;55.706;37.656;2022-08-30T10:32:57;99246.19;;;29.22;nan
43814;BME280;29669;55.706;37.656;2022-08-30T10:36:26;99243.44;;;29.27;nan
43814;BME280;29669;55.706;37.656;2022-08-30T10:39:53;99238.97;;;29.50;nan
43814;BME280;29669;55.706;37.656;2022-08-30T10:44:01;99241.59;;;29.77;nan
43814;BME280;29669;55.706;37.656;2022-08-30T10:50:51;99240.97;;;29.44;nan
43814;BME280;29669;55.706;37.656;2022-08-30T10:54:20;99232.63;;;29.59;nan
43814;BME280;29669;55.706;37.656;2022-08-30T10:57:43;99239.84;;;29.73;nan
43814;BME280;29669;55.706;37.656;2022-08-30T11:05:06;99255.38;;;29.98;nan
43814;BME280;29669;55.706;37.656;2022-08-30T11:16:05;99240.72;;;30.84;nan
43814;BME280;29669;55.706;37.656;2022-08-30T11:19:36;99232.34;;;30.85;nan
43814;BME280;29669;55.706;37.656;2022-08-30T11:33:50;99237.13;;;30.66;nan
43814;BME280;29669;55.706;37.656;2022-08-30T11:43:54;99227.47;;;31.18;nan
43814;BME280;29669;55.706;37.656;2022-08-30T11:47:45;99234.41;;;31.19;nan
43814;BME280;29669;55.706;37.656;2022-08-30T12:02:03;99221.44;;;31.69;nan
43814;BME280;29669;55.706;37.656;2022-08-30T12:08:58;99209.44;;;31.58;nan
43814;BME280;29669;55.706;37.656;2022-08-30T12:12:44;99202.84;;;31.81;nan
43814;BME280;29669;55.706;37.656;2022-08-30T12:16:13;99201.91;;;31.94;nan
43814;BME280;29669;55.706;37.656;2022-08-30T12:19:36;99199.88;;;32.08;nan
43814;BME280;29669;55.706;37.656;2022-08-30T12:23:14;99193.66;;;32.33;nan
43814;BME280;29669;55.706;37.656;2022-08-30T12:30:05;99191.44;;;32.90;nan
43814;BME280;29669;55.706;37.656;2022-08-30T12:33:30;99188.88;;;33.31;nan
43814;BME280;29669;55.706;37.656;2022-08-30T12:36:59;99186.56;;;33.50;nan
43814;BME280;29669;55.706;37.656;2022-08-30T12:40:23;99198.47;;;33.41;nan
43814;BME280;29669;55.706;37.656;2022-08-30T12:43:50;99190.91;;;33.13;nan
43814;BME280;29669;55.706;37.656;2022-08-30T12:47:13;99177.41;;;34.46;nan
43814;BME280;29669;55.706;37.656;2022-08-30T12:50:52;99177.94;;;36.12;nan
43814;BME280;29669;55.706;37.656;2022-08-30T12:54:28;99181.34;;;37.30;nan
43814;BME280;29669;55.706;37.656;2022-08-30T12:57:58;99183.94;;;37.61;nan
43814;BME280;29669;55.706;37.656;2022-08-30T13:01:34;99175.69;;;37.04;nan
43814;BME280;29669;55.706;37.656;2022-08-30T13:04:55;99167.03;;;36.82;nan
43814;BME280;29669;55.706;37.656;2022-08-30T13:12:05;99169.47;;;35.85;nan
43814;BME280;29669;55.706;37.656;2022-08-30T13:15:34;99160.72;;;34.76;nan
43814;BME280;29669;55.706;37.656;2022-08-30T13:19:32;99166.19;;;34.56;nan
43814;BME280;29669;55.706;37.656;2022-08-30T13:23:07;99148.72;;;34.41;nan
43814;BME280;29669;55.706;37.656;2022-08-30T13:26:34;99155.94;;;33.84;nan
43814;BME280;29669;55.706;37.656;2022-08-30T13:29:56;99152.06;;;33.02;nan
43814;BME280;29669;55.706;37.656;2022-08-30T13:33:19;99157.22;;;31.98;nan
43814;BME280;29669;55.706;37.656;2022-08-30T13:36:59;99162.97;;;31.31;nan
43814;BME280;29669;55.706;37.656;2022-08-30T13:40:41;99165.63;;;31.23;nan
43814;BME280;29669;55.706;37.656;2022-08-30T13:44:02;99164.94;;;31.39;nan
43814;BME280;29669;55.706;37.656;2022-08-30T13:47:23;99157.78;;;32.46;nan
43814;BME280;29669;55.706;37.656;2022-08-30T13:50:44;99158.28;;;34.39;nan
43814;BME280;29669;55.706;37.656;2022-08-30T13:54:06;99150.03;;;36.08;nan
43814;BME280;29669;55.706;37.656;2022-08-30T13:57:29;99147.94;;;37.41;nan
43814;BME280;29669;55.706;37.656;2022-08-30T14:01:05;99143.31;;;37.61;nan
43814;BME280;29669;55.706;37.656;2022-08-30T14:04:27;99144.44;;;38.17;nan
43814;BME280;29669;55.706;37.656;2022-08-30T14:07:48;99131.69;;;39.12;nan
43814;BME280;29669;55.706;37.656;2022-08-30T14:11:10;99139.16;;;39.48;nan
43814;BME280;29669;55.706;37.656;2022-08-30T14:14:31;99131.28;;;40.02;nan
43814;BME280;29669;55.706;37.656;2022-08-30T14:17:52;99129.69;;;39.65;nan
43814;BME280;29669;55.706;37.656;2022-08-30T14:21:13;99124.63;;;39.63;nan
43814;BME280;29669;55.706;37.656;2022-08-30T14:24:30;99117.03;;;39.46;nan
43814;BME280;29669;55.706;37.656;2022-08-30T14:27:51;99112.22;;;39.06;nan
43814;BME280;29669;55.706;37.656;2022-08-30T14:31:12;99110.69;;;39.09;nan
43814;BME280;29669;55.706;37.656;2022-08-30T14:34:33;99115.63;;;39.03;nan
43814;BME280;29669;55.706;37.656;2022-08-30T14:37:56;99121.34;;;38.95;nan
43814;BME280;29669;55.706;37.656;2022-08-30T14:41:17;99120.72;;;38.56;nan
43814;BME280;29669;55.706;37.656;2022-08-30T14:44:38;99112.59;;;37.53;nan
43814;BME280;29669;55.706;37.656;2022-08-30T14:48:02;99118.09;;;36.88;nan
43814;BME280;29669;55.706;37.656;2022-08-30T14:51:23;99115.81;;;35.72;nan
43814;BME280;29669;55.706;37.656;2022-08-30T14:54:44;99123.34;;;35.39;nan
43814;BME280;29669;55.706;37.656;2022-08-30T14:58:11;99114.00;;;35.76;nan
43814;BME280;29669;55.706;37.656;2022-08-30T15:01:33;99111.75;;;36.06;nan
43814;BME280;29669;55.706;37.656;2022-08-30T15:04:54;99120.31;;;36.23;nan
43814;BME280;29669;55.706;37.656;2022-08-30T15:08:08;99115.16;;;36.03;nan
43814;BME280;29669;55.706;37.656;2022-08-30T15:11:29;99112.81;;;35.89;nan
43814;BME280;29669;55.706;37.656;2022-08-30T15:14:50;99118.88;;;35.98;nan
43814;BME280;29669;55.706;37.656;2022-08-30T15:18:11;99116.34;;;35.62;nan
43814;BME280;29669;55.706;37.656;2022-08-30T15:21:35;99121.47;;;35.15;nan
43814;BME280;29669;55.706;37.656;2022-08-30T15:24:56;99123.91;;;33.70;nan
43814;BME280;29669;55.706;37.656;2022-08-30T15:28:17;99120.69;;;32.14;nan
43814;BME280;29669;55.706;37.656;2022-08-30T15:31:39;99125.69;;;31.04;nan
43814;BME280;29669;55.706;37.656;2022-08-30T15:35:00;99120.81;;;30.28;nan
43814;BME280;29669;55.706;37.656;2022-08-30T15:38:21;99121.75;;;29.65;nan
43814;BME280;29669;55.706;37.656;2022-08-30T15:41:43;99115.69;;;29.24;nan
43814;BME280;29669;55.706;37.656;2022-08-30T15:45:08;99120.06;;;28.93;nan
43814;BME280;29669;55.706;37.656;2022-08-30T15:48:30;99117.59;;;28.69;nan
43814;BME280;29669;55.706;37.656;2022-08-30T15:51:52;99110.75;;;28.50;nan
43814;BME280;29669;55.706;37.656;2022-08-30T15:55:13;99112.91;;;28.34;nan
43814;BME280;29669;55.706;37.656;2022-08-30T15:58:34;99121.97;;;28.20;nan
43814;BME280;29669;55.706;37.656;2022-08-30T16:01:55;99121.13;;;28.06;nan
43814;BME280;29669;55.706;37.656;2022-08-30T16:05:16;99120.78;;;27.94;nan
43814;BME280;29669;55.706;37.656;2022-08-30T16:08:37;99120.97;;;27.78;nan
43814;BME280;29669;55.706;37.656;2022-08-30T16:12:00;99114.22;;;27.67;nan
43814;BME280;29669;55.706;37.656;2022-08-30T16:15:29;99115.97;;;27.58;nan
43814;BME280;29669;55.706;37.656;2022-08-30T16:18:51;99112.38;;;27.49;nan
43814;BME280;29669;55.706;37.656;2022-08-30T16:22:12;99111.06;;;27.47;nan
43814;BME280;29669;55.706;37.656;2022-08-30T16:25:33;99116.81;;;27.35;nan
43814;BME280;29669;55.706;37.656;2022-08-30T16:28:54;99110.31;;;27.23;nan
43814;BME280;29669;55.706;37.656;2022-08-30T16:32:16;99111.81;;;27.10;nan
43814;BME280;29669;55.706;37.656;2022-08-30T16:35:36;99112.75;;;27.01;nan
43814;BME280;29669;55.706;37.656;2022-08-30T16:38:58;99111.00;;;26.91;nan
43814;BME280;29669;55.706;37.656;2022-08-30T16:42:18;99111.09;;;26.81;nan
43814;BME280;29669;55.706;37.656;2022-08-30T16:45:40;99115.69;;;26.75;nan
43814;BME280;29669;55.706;37.656;2022-08-30T16:49:02;99110.44;;;26.70;nan
43814;BME280;29669;55.706;37.656;2022-08-30T16:52:23;99106.97;;;26.70;nan
43814;BME280;29669;55.706;37.656;2022-08-30T16:55:48;99103.25;;;26.66;nan
43814;BME280;29669;55.706;37.656;2022-08-30T16:59:09;99103.59;;;26.59;nan
43814;BME280;29669;55.706;37.656;2022-08-30T17:02:30;99107.88;;;26.55;nan
43814;BME280;29669;55.706;37.656;2022-08-30T17:05:59;99105.00;;;26.52;nan
43814;BME280;29669;55.706;37.656;2022-08-30T17:09:20;99113.25;;;26.50;nan
43814;BME280;29669;55.706;37.656;2022-08-30T17:12:41;99106.16;;;26.46;nan
43814;BME280;29669;55.706;37.656;2022-08-30T17:15:55;99092.88;;;26.41;nan
43814;BME280;29669;55.706;37.656;2022-08-30T17:19:10;99095.81;;;26.39;nan
43814;BME280;29669;55.706;37.656;2022-08-30T17:22:51;99096.09;;;26.38;nan
43814;BME280;29669;55.706;37.656;2022-08-30T17:26:12;99092.94;;;26.36;nan
43814;BME280;29669;55.706;37.656;2022-08-30T17:29:33;99097.22;;;26.32;nan
43814;BME280;29669;55.706;37.656;2022-08-30T17:32:57;99085.56;;;26.28;nan
43814;BME280;29669;55.706;37.656;2022-08-30T17:36:18;99081.06;;;26.23;nan
43814;BME280;29669;55.706;37.656;2022-08-30T17:39:41;99077.63;;;26.23;nan
43814;BME280;29669;55.706;37.656;2022-08-30T17:43:03;99076.59;;;26.19;nan
43814;BME280;29669;55.706;37.656;2022-08-30T17:46:24;99076.38;;;26.15;nan
43814;BME280;29669;55.706;37.656;2022-08-30T17:49:46;99073.50;;;26.06;nan
43814;BME280;29669;55.706;37.656;2022-08-30T17:53:07;99075.63;;;26.04;nan
43814;BME280;29669;55.706;37.656;2022-08-30T17:56:28;99066.91;;;25.99;nan
43814;BME280;29669;55.706;37.656;2022-08-30T17:59:50;99067.75;;;25.94;nan
43814;BME280;29669;55.706;37.656;2022-08-30T18:03:11;99063.31;;;25.85;nan
43814;BME280;29669;55.706;37.656;2022-08-30T18:06:33;99059.91;;;25.79;nan
43814;BME280;29669;55.706;37.656;2022-08-30T18:09:54;99060.44;;;25.76;nan
43814;BME280;29669;55.706;37.656;2022-08-30T18:13:15;99059.91;;;25.79;nan
43814;BME280;29669;55.706;37.656;2022-08-30T18:16:38;99066.22;;;25.88;nan
43814;BME280;29669;55.706;37.656;2022-08-30T18:20:00;99069.28;;;26.00;nan
43814;BME280;29669;55.706;37.656;2022-08-30T18:23:22;99066.03;;;26.14;nan
43814;BME280;29669;55.706;37.656;2022-08-30T18:26:42;99061.66;;;26.23;nan
43814;BME280;29669;55.706;37.656;2022-08-30T18:30:05;99070.16;;;26.25;nan
43814;BME280;29669;55.706;37.656;2022-08-30T18:33:27;99059.00;;;26.23;nan
43814;BME280;29669;55.706;37.656;2022-08-30T18:36:50;99057.47;;;26.17;nan
43814;BME280;29669;55.706;37.656;2022-08-30T18:40:11;99054.59;;;26.08;nan
43814;BME280;29669;55.706;37.656;2022-08-30T18:43:33;99044.94;;;25.88;nan
43814;BME280;29669;55.706;37.656;2022-08-30T18:46:55;99033.41;;;25.69;nan
43814;BME280;29669;55.706;37.656;2022-08-30T18:50:16;99038.84;;;25.54;nan
43814;BME280;29669;55.706;37.656;2022-08-30T18:53:38;99030.16;;;25.39;nan
43814;BME280;29669;55.706;37.656;2022-08-30T18:56:58;99030.75;;;25.26;nan
43814;BME280;29669;55.706;37.656;2022-08-30T19:00:19;99018.84;;;25.18;nan
43814;BME280;29669;55.706;37.656;2022-08-30T19:03:41;99031.13;;;25.09;nan
43814;BME280;29669;55.706;37.656;2022-08-30T19:07:05;99025.88;;;24.99;nan
43814;BME280;29669;55.706;37.656;2022-08-30T19:10:27;99019.56;;;24.90;nan
43814;BME280;29669;55.706;37.656;2022-08-30T19:13:47;99012.44;;;24.80;nan
43814;BME280;29669;55.706;37.656;2022-08-30T19:17:10;99011.38;;;24.76;nan
43814;BME280;29669;55.706;37.656;2022-08-30T19:20:30;99024.91;;;24.70;nan
43814;BME280;29669;55.706;37.656;2022-08-30T19:23:51;99024.97;;;24.60;nan
43814;BME280;29669;55.706;37.656;2022-08-30T19:27:12;99025.00;;;24.50;nan